createdAt,value
2019-03-23T00:02:29.342Z,11.45
2019-03-23T00:04:59.788Z,16.00
2019-03-23T00:07:29.585Z,16.97
2019-03-23T00:09:59.369Z,14.50
2019-03-23T00:12:29.820Z,16.95
2019-03-23T00:14:59.617Z,18.75
2019-03-23T00:17:29.413Z,12.60
2019-03-23T00:19:59.816Z,12.60
2019-03-23T00:22:29.609Z,14.73
2019-03-23T00:24:59.394Z,18.42
2019-03-23T00:27:29.208Z,14.38
2019-03-23T00:29:58.997Z,17.67
2019-03-23T00:32:28.780Z,18.15
2019-03-23T00:34:58.611Z,20.68
2019-03-23T00:37:28.459Z,18.05
2019-03-23T00:39:58.643Z,15.93
2019-03-23T00:42:28.707Z,23.85
2019-03-23T00:44:58.675Z,17.90
2019-03-23T00:47:28.696Z,20.50
2019-03-23T00:49:58.754Z,17.95
2019-03-23T00:52:28.535Z,18.40
2019-03-23T00:54:58.638Z,16.95
2019-03-23T00:57:29.016Z,26.33
2019-03-23T00:59:58.787Z,14.33
2019-03-23T01:02:28.692Z,19.17
2019-03-23T01:04:58.791Z,17.75
2019-03-23T01:07:28.942Z,28.83
2019-03-23T01:09:58.745Z,16.30
2019-03-23T01:12:29.015Z,21.65
2019-03-23T01:14:58.786Z,17.45
2019-03-23T01:17:28.639Z,21.37
2019-03-23T01:19:58.836Z,16.57
2019-03-23T01:22:28.739Z,19.67
2019-03-23T01:24:59.027Z,19.00
2019-03-23T01:27:29.021Z,17.27
2019-03-23T01:29:58.792Z,21.45
2019-03-23T01:32:29.007Z,22.27
2019-03-23T01:34:59.146Z,17.87
2019-03-23T01:37:29.372Z,17.23
2019-03-23T01:39:59.474Z,17.52
2019-03-23T01:42:30.111Z,32.83
2019-03-23T01:44:59.970Z,17.12
2019-03-23T01:47:30.250Z,18.67
2019-03-23T01:50:00.055Z,18.40
2019-03-23T01:52:29.835Z,18.40
2019-03-23T01:54:59.613Z,22.60
2019-03-23T01:57:29.418Z,27.30
2019-03-23T01:59:59.850Z,22.90
2019-03-23T02:02:29.629Z,23.95
2019-03-23T02:04:59.471Z,19.23
2019-03-23T02:07:29.242Z,16.00
2019-03-23T02:09:59.026Z,25.20
2019-03-23T02:12:28.844Z,24.37
2019-03-23T02:14:58.621Z,20.20
2019-03-23T02:17:28.879Z,27.32
2019-03-23T02:20:00.315Z,22.70
2019-03-23T02:22:30.090Z,19.62
2019-03-23T02:25:00.337Z,25.45
2019-03-23T02:27:30.457Z,27.52
2019-03-23T02:30:00.767Z,23.75
2019-03-23T02:32:31.076Z,18.67
2019-03-23T02:35:01.539Z,18.82
2019-03-23T02:37:31.830Z,33.78
2019-03-23T02:40:02.169Z,23.22
2019-03-23T02:42:32.530Z,20.62
2019-03-23T02:45:02.515Z,20.35
2019-03-23T02:47:32.832Z,20.48
2019-03-23T02:50:03.885Z,25.32
2019-03-23T02:52:33.656Z,21.55
2019-03-23T02:55:04.956Z,21.87
2019-03-23T02:57:34.779Z,24.10
2019-03-23T03:00:07.312Z,23.47
2019-03-23T03:02:37.186Z,23.87
2019-03-23T03:05:09.073Z,21.37
2019-03-23T03:07:42.376Z,23.62
2019-03-23T03:10:11.617Z,27.45
2019-03-23T03:12:41.420Z,23.77
2019-03-23T03:15:11.292Z,21.17
2019-03-23T03:17:41.412Z,23.02
2019-03-23T03:20:11.805Z,21.82
2019-03-23T03:22:42.226Z,33.20
2019-03-23T03:25:12.308Z,21.05
2019-03-23T03:27:42.567Z,21.30
2019-03-23T03:30:13.065Z,20.37
2019-03-23T03:32:42.952Z,20.45
2019-03-23T03:35:13.066Z,22.48
2019-03-23T03:37:55.859Z,25.80
2019-03-23T03:40:14.413Z,31.85
2019-03-23T03:42:44.237Z,21.15
2019-03-23T03:45:23.011Z,29.32
2019-03-23T03:47:52.835Z,27.80
2019-03-23T03:50:22.897Z,29.35
2019-03-23T03:52:52.685Z,23.32
2019-03-23T03:55:22.660Z,26.40
2019-03-23T03:57:52.431Z,20.57
2019-03-23T04:00:22.232Z,26.45
2019-03-23T04:02:52.040Z,27.82
2019-03-23T04:05:21.815Z,26.20
2019-03-23T04:07:52.114Z,24.87
2019-03-23T04:10:22.400Z,16.73
2019-03-23T04:12:52.688Z,25.30
2019-03-23T04:15:23.081Z,22.02
2019-03-23T04:17:53.383Z,20.00
2019-03-23T04:20:23.550Z,29.72
2019-03-23T04:22:53.672Z,24.50
2019-03-23T04:25:24.144Z,29.35
2019-03-23T04:27:54.432Z,22.90
2019-03-23T04:30:24.475Z,18.00
2019-03-23T04:32:54.297Z,26.05
2019-03-23T04:35:24.803Z,21.97
2019-03-23T04:37:54.587Z,27.37
2019-03-23T04:40:24.405Z,24.77
2019-03-23T04:42:54.183Z,21.15
2019-03-23T04:45:24.145Z,19.15
2019-03-23T04:47:53.965Z,20.57
2019-03-23T04:50:23.745Z,26.60
2019-03-23T04:52:53.518Z,25.17
2019-03-23T04:55:23.324Z,30.45
2019-03-23T04:57:53.091Z,19.27
2019-03-23T05:00:23.023Z,32.98
2019-03-23T05:02:52.832Z,24.67
2019-03-23T05:05:22.610Z,15.32
2019-03-23T05:07:52.390Z,23.45
2019-03-23T05:10:22.195Z,23.00
2019-03-23T05:12:51.971Z,24.90
2019-03-23T05:15:21.747Z,20.30
2019-03-23T05:17:51.571Z,17.15
2019-03-23T05:20:26.867Z,26.27
2019-03-23T05:22:56.769Z,23.87
2019-03-23T05:25:30.402Z,19.65
2019-03-23T05:28:00.179Z,17.65
2019-03-23T05:30:29.954Z,26.27
2019-03-23T05:32:59.772Z,26.45
2019-03-23T05:35:29.543Z,21.57
2019-03-23T05:37:59.324Z,17.45
2019-03-23T05:40:29.144Z,20.00
2019-03-23T05:42:58.923Z,19.42
2019-03-23T05:45:28.702Z,21.05
2019-03-23T05:47:59.127Z,19.32
2019-03-23T05:50:29.211Z,19.67
2019-03-23T05:52:58.991Z,25.32
2019-03-23T05:55:28.806Z,26.82
2019-03-23T05:57:59.538Z,25.10
2019-03-23T06:00:29.314Z,26.77
2019-03-23T06:02:59.123Z,19.35
2019-03-23T06:05:28.901Z,29.37
2019-03-23T06:07:59.404Z,30.30
2019-03-23T06:10:29.223Z,32.58
2019-03-23T06:12:58.996Z,23.35
2019-03-23T06:15:28.766Z,26.73
2019-03-23T06:17:58.583Z,27.82
2019-03-23T06:20:28.360Z,22.60
2019-03-23T06:22:58.133Z,26.20
2019-03-23T06:25:28.409Z,21.62
2019-03-23T06:27:58.866Z,26.68
2019-03-23T06:30:29.190Z,23.73
2019-03-23T06:32:59.506Z,25.62
2019-03-23T06:35:29.436Z,21.80
2019-03-23T06:37:59.211Z,24.67
2019-03-23T06:40:29.033Z,32.15
2019-03-23T06:42:59.883Z,26.12
2019-03-23T06:45:29.983Z,31.85
2019-03-23T06:47:59.802Z,30.40
2019-03-23T06:50:29.576Z,30.68
2019-03-23T06:52:59.413Z,27.15
2019-03-23T06:55:29.248Z,20.12
2019-03-23T06:57:59.019Z,27.45
2019-03-23T07:00:28.803Z,23.55
2019-03-23T07:02:58.603Z,28.83
2019-03-23T07:05:28.383Z,31.52
2019-03-23T07:07:58.366Z,28.17
2019-03-23T07:10:28.556Z,27.87
2019-03-23T07:12:58.918Z,25.30
2019-03-23T07:15:28.691Z,28.00
2019-03-23T07:17:58.505Z,31.27
2019-03-23T07:20:28.279Z,26.25
2019-03-23T07:22:58.091Z,28.40
2019-03-23T07:25:27.903Z,27.77
2019-03-23T07:27:57.696Z,24.50
2019-03-23T07:30:27.461Z,24.50
2019-03-23T07:32:57.309Z,23.50
2019-03-23T07:35:27.078Z,26.37
2019-03-23T07:37:56.931Z,27.80
2019-03-23T07:40:26.748Z,24.02
2019-03-23T07:42:56.825Z,27.02
2019-03-23T07:45:26.606Z,26.40
2019-03-23T07:47:56.419Z,27.00
2019-03-23T07:50:26.201Z,25.40
2019-03-23T07:52:56.673Z,27.85
2019-03-23T07:55:26.486Z,21.00
2019-03-23T07:57:56.933Z,32.55
2019-03-23T08:00:26.708Z,27.67
2019-03-23T08:02:57.251Z,27.02
2019-03-23T08:05:27.019Z,22.87
2019-03-23T08:07:56.986Z,33.38
2019-03-23T08:10:29.268Z,30.40
2019-03-23T08:12:59.047Z,21.87
2019-03-23T08:15:29.272Z,23.50
2019-03-23T08:17:59.089Z,25.48
2019-03-23T08:20:28.875Z,30.85
2019-03-23T08:22:58.746Z,28.27
2019-03-23T08:25:28.794Z,23.73
2019-03-23T08:27:58.582Z,27.00
2019-03-23T08:30:28.795Z,24.30
2019-03-23T08:32:59.102Z,29.48
2019-03-23T08:35:29.237Z,25.05
2019-03-23T08:37:59.395Z,25.35
2019-03-23T08:40:29.866Z,23.35
2019-03-23T08:42:59.946Z,29.67
2019-03-23T08:45:30.174Z,32.15
2019-03-23T08:48:00.585Z,24.75
2019-03-23T08:50:31.751Z,27.07
2019-03-23T08:53:03.763Z,20.68
2019-03-23T08:55:33.566Z,19.27
2019-03-23T08:58:03.368Z,33.13
2019-03-23T09:00:33.132Z,23.60
2019-03-23T09:03:03.871Z,26.55
2019-03-23T09:05:33.931Z,29.85
2019-03-23T09:08:03.724Z,28.00
2019-03-23T09:10:33.535Z,19.52
2019-03-23T09:13:03.312Z,19.98
2019-03-23T09:15:33.459Z,19.82
2019-03-23T09:18:03.810Z,17.90
2019-03-23T09:20:34.337Z,17.45
2019-03-23T09:23:04.124Z,19.67
2019-03-23T09:25:33.943Z,27.42
2019-03-23T09:28:03.719Z,24.82
2019-03-23T09:30:33.504Z,17.70
2019-03-23T09:33:03.321Z,26.77
2019-03-23T09:35:33.105Z,19.10
2019-03-23T09:38:02.879Z,19.42
2019-03-23T09:40:32.703Z,16.90
2019-03-23T09:43:02.479Z,17.95
2019-03-23T09:45:32.262Z,21.40
2019-03-23T09:48:02.589Z,21.68
2019-03-23T09:50:32.875Z,21.50
2019-03-23T09:53:03.202Z,18.48
2019-03-23T09:55:33.469Z,19.07
2019-03-23T09:58:03.755Z,14.55
2019-03-23T10:00:33.770Z,17.40
2019-03-23T10:03:04.350Z,23.77
2019-03-23T10:05:34.358Z,18.70
2019-03-23T10:08:04.665Z,14.70
2019-03-23T10:10:34.916Z,16.40
2019-03-23T10:13:05.215Z,12.33
2019-03-23T10:15:35.517Z,15.25
2019-03-23T10:18:06.254Z,14.47
2019-03-23T10:20:36.038Z,16.35
2019-03-23T10:23:06.405Z,9.53
2019-03-23T10:25:36.706Z,17.05
2019-03-23T10:28:07.006Z,15.55
2019-03-23T10:30:37.262Z,16.65
2019-03-23T10:33:07.696Z,10.18
2019-03-23T10:35:37.911Z,15.40
2019-03-23T10:38:08.051Z,14.58
2019-03-23T10:40:38.115Z,18.65
2019-03-23T10:43:08.442Z,18.15
2019-03-23T10:45:44.094Z,12.03
2019-03-23T10:48:12.078Z,14.98
2019-03-23T10:50:41.422Z,13.30
2019-03-23T10:53:11.746Z,12.65
2019-03-23T10:55:41.563Z,18.30
2019-03-23T10:58:11.354Z,14.85
2019-03-23T11:00:41.198Z,17.60
2019-03-23T11:03:11.739Z,16.65
2019-03-23T11:05:41.678Z,13.58
2019-03-23T11:08:11.464Z,11.28
2019-03-23T11:10:41.937Z,12.33
2019-03-23T11:13:12.421Z,18.98
2019-03-23T11:15:42.207Z,11.33
2019-03-23T11:18:12.115Z,10.35
2019-03-23T11:20:42.002Z,10.95
2019-03-23T11:23:11.795Z,15.05
2019-03-23T11:25:41.759Z,14.50
2019-03-23T11:28:11.734Z,14.33
2019-03-23T11:30:41.514Z,16.25
2019-03-23T11:33:11.818Z,11.45
2019-03-23T11:35:41.951Z,11.50
2019-03-23T11:38:12.086Z,11.93
2019-03-23T11:40:51.789Z,12.95
2019-03-23T11:43:13.500Z,13.43
2019-03-23T11:45:43.432Z,14.47
2019-03-23T11:48:13.459Z,18.98
2019-03-23T11:50:43.435Z,12.25
2019-03-23T11:53:13.808Z,10.53
2019-03-23T11:55:43.622Z,14.75
2019-03-23T11:58:13.491Z,17.52
2019-03-23T12:00:43.280Z,14.43
2019-03-23T12:03:13.142Z,13.62
2019-03-23T12:05:43.791Z,12.13
2019-03-23T12:08:13.900Z,13.38
2019-03-23T12:10:43.814Z,17.70
2019-03-23T12:13:13.594Z,16.80
2019-03-23T12:15:43.378Z,13.45
2019-03-23T12:18:14.661Z,10.65
2019-03-23T12:20:44.620Z,16.60
2019-03-23T12:23:14.678Z,15.08
2019-03-23T12:25:45.297Z,12.28
2019-03-23T12:28:15.186Z,13.72
2019-03-23T12:30:44.969Z,12.75
2019-03-23T12:33:14.904Z,15.45
2019-03-23T12:35:44.934Z,16.48
2019-03-23T12:38:14.902Z,12.28
2019-03-23T12:40:44.956Z,14.75
2019-03-23T12:43:15.066Z,12.05
2019-03-23T12:45:45.277Z,18.15
2019-03-23T12:48:15.151Z,15.48
2019-03-23T12:50:45.253Z,12.82
2019-03-23T12:53:15.094Z,16.23
2019-03-23T12:55:44.990Z,10.95
2019-03-23T12:58:15.054Z,12.63
2019-03-23T13:00:44.958Z,12.63
2019-03-23T13:03:14.858Z,10.13
2019-03-23T13:05:44.642Z,10.40
2019-03-23T13:08:14.646Z,9.48
2019-03-23T13:10:44.688Z,11.10
2019-03-23T13:13:14.741Z,14.20
2019-03-23T13:15:44.519Z,9.23
2019-03-23T13:18:14.786Z,9.38
2019-03-23T13:20:44.923Z,10.88
2019-03-23T13:23:14.766Z,13.28
2019-03-23T13:25:44.669Z,14.28
2019-03-23T13:28:14.763Z,13.88
2019-03-23T13:30:45.087Z,11.80
2019-03-23T13:33:15.044Z,11.20
2019-03-23T13:35:45.075Z,9.05
2019-03-23T13:38:15.111Z,19.90
2019-03-23T13:40:45.454Z,15.05
2019-03-23T13:43:15.317Z,16.67
2019-03-23T13:45:45.281Z,16.02
2019-03-23T13:48:15.180Z,13.62
2019-03-23T13:50:45.076Z,14.00
2019-03-23T13:53:15.026Z,12.78
2019-03-23T13:55:44.846Z,11.75
2019-03-23T13:58:15.823Z,14.68
2019-03-23T14:00:45.627Z,14.63
2019-03-23T14:03:15.667Z,12.37
2019-03-23T14:05:46.003Z,11.95
2019-03-23T14:08:16.334Z,14.80
2019-03-23T14:10:46.827Z,17.55
2019-03-23T14:13:17.169Z,13.75
2019-03-23T14:15:47.338Z,15.00
2019-03-23T14:18:17.683Z,9.85
2019-03-23T14:20:48.034Z,11.08
2019-03-23T14:23:18.003Z,14.50
2019-03-23T14:25:48.366Z,15.70
2019-03-23T14:28:18.804Z,13.53
2019-03-23T14:30:48.845Z,14.40
2019-03-23T14:33:19.448Z,16.50
2019-03-23T14:35:49.488Z,13.18
2019-03-23T14:38:19.761Z,11.57
2019-03-23T14:40:50.115Z,14.50
2019-03-23T14:43:20.656Z,14.40
2019-03-23T14:45:50.830Z,12.82
2019-03-23T14:48:21.811Z,13.22
2019-03-23T14:50:51.590Z,14.75
2019-03-23T14:53:21.443Z,16.37
2019-03-23T14:55:51.507Z,21.23
2019-03-23T14:58:22.094Z,18.20
2019-03-23T15:00:52.369Z,14.63
2019-03-23T15:03:22.342Z,12.95
2019-03-23T15:05:52.863Z,12.15
2019-03-23T15:08:23.147Z,14.10
2019-03-23T15:10:53.198Z,15.58
2019-03-23T15:13:23.467Z,17.55
2019-03-23T15:15:53.250Z,15.10
2019-03-23T15:18:23.155Z,15.28
2019-03-23T15:20:53.178Z,18.32
2019-03-23T15:23:22.954Z,20.32
2019-03-23T15:25:52.776Z,15.10
2019-03-23T15:28:22.924Z,18.32
2019-03-23T15:30:52.890Z,14.58
2019-03-23T15:33:23.535Z,14.55
2019-03-23T15:35:53.487Z,15.28
2019-03-23T15:38:23.455Z,23.20
2019-03-23T15:40:53.279Z,14.38
2019-03-23T15:43:23.231Z,19.05
2019-03-23T15:45:53.205Z,23.15
2019-03-23T15:48:23.029Z,12.33
2019-03-23T15:50:56.466Z,19.17
2019-03-23T15:53:26.938Z,28.50
2019-03-23T15:55:56.896Z,12.88
2019-03-23T15:58:26.687Z,16.90
2019-03-23T16:00:56.995Z,13.53
2019-03-23T16:03:26.952Z,22.55
2019-03-23T16:05:56.984Z,16.30
2019-03-23T16:08:26.950Z,17.70
2019-03-23T16:10:57.347Z,16.93
2019-03-23T16:13:27.240Z,16.05
2019-03-23T16:15:57.213Z,19.67
2019-03-23T16:18:27.031Z,15.95
2019-03-23T16:20:57.904Z,16.52
2019-03-23T16:23:27.878Z,13.62
2019-03-23T16:25:57.847Z,12.35
2019-03-23T16:28:27.858Z,10.65
2019-03-23T16:30:57.826Z,12.40
2019-03-23T16:33:27.659Z,14.43
2019-03-23T16:35:58.218Z,18.25
2019-03-23T16:38:28.499Z,18.52
2019-03-23T16:40:58.954Z,16.25
2019-03-23T16:43:29.296Z,19.67
2019-03-23T16:45:59.262Z,18.37
2019-03-23T16:48:29.622Z,18.42
2019-03-23T16:50:59.679Z,19.75
2019-03-23T16:53:30.180Z,24.32
2019-03-23T16:56:00.514Z,20.32
2019-03-23T16:58:31.042Z,20.45
2019-03-23T17:01:01.010Z,23.47
2019-03-23T17:03:31.382Z,18.75
2019-03-23T17:06:01.354Z,18.37
2019-03-23T17:08:31.270Z,17.20
2019-03-23T17:11:01.090Z,20.37
2019-03-23T17:13:31.049Z,21.23
2019-03-23T17:16:01.022Z,20.27
2019-03-23T17:18:31.079Z,20.70
2019-03-23T17:21:01.101Z,21.75
2019-03-23T17:23:31.082Z,19.85
2019-03-23T17:26:01.471Z,22.05
2019-03-23T17:28:32.289Z,16.00
2019-03-23T17:31:02.866Z,20.12
2019-03-23T17:33:32.683Z,15.58
2019-03-23T17:36:02.647Z,21.35
2019-03-23T17:38:32.427Z,13.05
2019-03-23T17:41:03.058Z,19.25
2019-03-23T17:43:34.031Z,20.43
2019-03-23T17:46:04.337Z,20.20
2019-03-23T17:48:34.151Z,15.40
2019-03-23T17:51:04.083Z,19.55
2019-03-23T17:53:33.868Z,21.97
2019-03-23T17:56:03.686Z,18.75
2019-03-23T17:58:34.033Z,20.32
2019-03-23T18:01:04.178Z,20.82
2019-03-23T18:03:34.065Z,20.55
2019-03-23T18:06:04.083Z,13.83
2019-03-23T18:08:33.983Z,21.50
2019-03-23T18:11:04.500Z,18.02
2019-03-23T18:13:34.345Z,17.10
2019-03-23T18:16:04.706Z,17.90
2019-03-23T18:18:35.197Z,20.75
2019-03-23T18:21:05.300Z,15.20
2019-03-23T18:23:35.802Z,13.35
2019-03-23T18:26:05.771Z,13.08
2019-03-23T18:28:36.400Z,10.43
2019-03-23T18:31:06.681Z,24.87
2019-03-23T18:33:36.667Z,22.58
2019-03-23T18:36:07.182Z,18.42
2019-03-23T18:38:37.140Z,20.75
2019-03-23T18:41:07.499Z,16.50
2019-03-23T18:43:37.680Z,17.05
2019-03-23T18:46:08.420Z,15.75
2019-03-23T18:48:38.409Z,16.55
2019-03-23T18:51:08.810Z,17.70
2019-03-23T18:53:39.187Z,14.28
2019-03-23T18:56:09.260Z,20.60
2019-03-23T18:58:39.583Z,19.05
2019-03-23T19:01:09.856Z,15.83
2019-03-23T19:03:40.504Z,14.75
2019-03-23T19:06:11.271Z,19.23
2019-03-23T19:08:41.479Z,25.72
2019-03-23T19:11:11.531Z,16.97
2019-03-23T19:13:41.841Z,25.30
2019-03-23T19:16:12.419Z,24.50
2019-03-23T19:18:42.792Z,29.20
2019-03-23T19:21:12.813Z,26.27
2019-03-23T19:23:44.796Z,24.30
2019-03-23T19:26:14.782Z,28.85
2019-03-23T19:28:44.555Z,28.27
2019-03-23T19:31:14.531Z,30.30
2019-03-23T19:33:44.534Z,20.43
2019-03-23T19:36:15.275Z,24.60
2019-03-23T19:38:45.247Z,25.15
2019-03-23T19:41:15.303Z,28.80
2019-03-23T19:43:49.668Z,22.55
2019-03-23T19:46:17.256Z,25.65
2019-03-23T19:48:47.308Z,54.75
2019-03-23T19:51:17.339Z,59.48
2019-03-23T19:53:47.302Z,47.65
2019-03-23T19:56:17.263Z,36.28
2019-03-23T19:58:47.282Z,26.65
2019-03-23T20:01:17.555Z,21.60
2019-03-23T20:03:47.853Z,28.27
2019-03-23T20:06:17.830Z,31.82
2019-03-23T20:08:48.155Z,24.18
2019-03-23T20:11:18.613Z,30.00
2019-03-23T20:13:58.251Z,17.60
2019-03-23T20:16:20.236Z,20.92
2019-03-23T20:18:50.043Z,23.42
2019-03-23T20:21:20.003Z,17.95
2019-03-23T20:23:51.319Z,21.42
2019-03-23T20:26:21.386Z,22.02
2019-03-23T20:28:51.387Z,20.92
2019-03-23T20:31:21.167Z,29.07
2019-03-23T20:33:50.976Z,29.40
2019-03-23T20:36:20.953Z,33.92
2019-03-23T20:38:51.427Z,59.00
2019-03-23T20:41:21.238Z,65.15
2019-03-23T20:43:51.395Z,41.63
2019-03-23T20:46:21.769Z,35.33
2019-03-23T20:48:51.670Z,32.40
2019-03-23T20:51:21.457Z,33.67
2019-03-23T20:53:51.420Z,32.65
2019-03-23T20:56:22.197Z,42.00
2019-03-23T20:58:51.977Z,31.15
2019-03-23T21:01:21.751Z,22.27
2019-03-23T21:03:51.570Z,26.30
2019-03-23T21:06:21.343Z,30.48
2019-03-23T21:08:51.354Z,20.02
2019-03-23T21:11:21.786Z,21.00
2019-03-23T21:13:51.790Z,17.80
2019-03-23T21:16:21.999Z,18.98
2019-03-23T21:18:52.392Z,18.07
2019-03-23T21:21:22.668Z,21.07
2019-03-23T21:23:53.015Z,21.93
2019-03-23T21:26:23.253Z,14.55
2019-03-23T21:28:53.439Z,20.02
2019-03-23T21:31:23.762Z,19.73
2019-03-23T21:33:54.127Z,18.00
2019-03-23T21:36:24.311Z,20.90
2019-03-23T21:38:54.533Z,18.27
2019-03-23T21:41:25.003Z,25.23
2019-03-23T21:43:55.290Z,18.75
2019-03-23T21:46:25.507Z,21.07
2019-03-23T21:48:55.871Z,16.45
2019-03-23T21:51:26.127Z,12.45
2019-03-23T21:53:56.194Z,21.70
2019-03-23T21:56:26.746Z,17.12
2019-03-23T21:58:56.960Z,20.15
2019-03-23T22:01:26.735Z,20.08
2019-03-23T22:03:57.585Z,17.50
2019-03-23T22:06:27.615Z,19.62
2019-03-23T22:08:57.387Z,23.70
2019-03-23T22:11:27.211Z,13.88
2019-03-23T22:13:56.988Z,20.80
2019-03-23T22:16:27.280Z,16.05
2019-03-23T22:18:57.119Z,22.73
2019-03-23T22:21:26.896Z,21.97
2019-03-23T22:23:58.131Z,17.67
2019-03-23T22:26:27.949Z,17.80
2019-03-23T22:28:57.721Z,24.05
2019-03-23T22:31:27.495Z,21.85
2019-03-23T22:33:57.302Z,20.12
2019-03-23T22:36:29.351Z,17.17
2019-03-23T22:38:59.128Z,20.90
2019-03-23T22:41:29.330Z,24.75
2019-03-23T22:43:59.107Z,16.93
2019-03-23T22:46:30.056Z,23.18
2019-03-23T22:49:00.051Z,21.70
2019-03-23T22:51:29.920Z,22.07
2019-03-23T22:53:59.699Z,19.92
2019-03-23T22:56:29.515Z,18.90
2019-03-23T22:58:59.293Z,16.40
2019-03-23T23:01:29.062Z,22.73
2019-03-23T23:03:59.589Z,19.12
2019-03-23T23:06:29.670Z,19.80
2019-03-23T23:08:59.875Z,20.60
2019-03-23T23:11:30.128Z,20.70
2019-03-23T23:14:00.355Z,15.50
2019-03-23T23:16:30.761Z,16.15
2019-03-23T23:19:01.032Z,13.70
2019-03-23T23:21:31.330Z,17.60
2019-03-23T23:24:01.327Z,15.28
2019-03-23T23:26:31.798Z,16.25
2019-03-23T23:29:02.089Z,17.05
2019-03-23T23:31:32.263Z,18.10
2019-03-23T23:34:02.868Z,13.08
2019-03-23T23:36:33.154Z,15.25
2019-03-23T23:39:03.488Z,21.73
2019-03-23T23:41:33.438Z,19.37
2019-03-23T23:44:03.533Z,19.30
2019-03-23T23:46:33.454Z,24.40
2019-03-23T23:49:03.457Z,12.63
2019-03-23T23:51:33.231Z,21.30
2019-03-23T23:54:03.008Z,10.90
2019-03-23T23:56:33.393Z,22.93
2019-03-23T23:59:03.164Z,16.52
